LIC2510 LEIB-LEXJ
Flight info
| Callsign | LIC2510 |
|---|---|
| Flight time | 1h 5m |
| Altitude | 32000 |
| Route | EPAMA N856 UMURE N863 REBUL/N0432F330 M601 POSSY/N0427F310 M601 PPN/N0395F270 M601 BLV |
| Aircraft | B38M/M-SDE1FGHILORVWXY/HB1 |
Departure
| Time | 2026-04-26 08:17 |
|---|---|
| Airport | Ibiza Airport (LEIB) |
Arrival
| Time | 2026-04-26 09:22 |
|---|---|
| Airport | Seve Ballesteros-Santander Airport (LEXJ) |
| Time | Latitude | Longitude | Altitude | Speed | Heading |
|---|---|---|---|---|---|
| 2026-04-26 08:04 | 38.87546 | 1.37211 | 11 ft | 0 kts | 332° |
| 2026-04-26 08:13 | 38.87561 | 1.37194 | 12 ft | 5 kts | 306° |
| 2026-04-26 08:14 | 38.87561 | 1.37126 | 11 ft | 11 kts | 252° |
| 2026-04-26 08:14 | 38.87516 | 1.37015 | 11 ft | 16 kts | 240° |
| 2026-04-26 08:14 | 38.87456 | 1.36872 | 11 ft | 20 kts | 233° |
| 2026-04-26 08:14 | 38.87316 | 1.36840 | 11 ft | 23 kts | 180° |
| 2026-04-26 08:15 | 38.87211 | 1.36692 | 11 ft | 25 kts | 240° |
| 2026-04-26 08:15 | 38.87133 | 1.36470 | 11 ft | 29 kts | 251° |
| 2026-04-26 08:15 | 38.87029 | 1.36233 | 10 ft | 31 kts | 242° |
| 2026-04-26 08:15 | 38.86922 | 1.35980 | 10 ft | 33 kts | 243° |
| 2026-04-26 08:16 | 38.86828 | 1.35821 | 10 ft | 20 kts | 190° |
| 2026-04-26 08:16 | 38.86726 | 1.35935 | 8 ft | 21 kts | 89° |
| 2026-04-26 08:16 | 38.86795 | 1.36123 | 8 ft | 32 kts | 62° |
| 2026-04-26 08:16 | 38.87067 | 1.36792 | 11 ft | 133 kts | 62° |
| 2026-04-26 08:17 | 38.87536 | 1.38060 | 673 ft | 168 kts | 69° |
| 2026-04-26 08:17 | 38.87841 | 1.39657 | 1736 ft | 190 kts | 79° |
| 2026-04-26 08:17 | 38.88199 | 1.41333 | 3012 ft | 202 kts | 73° |
| 2026-04-26 08:17 | 38.88531 | 1.42738 | 3558 ft | 200 kts | 74° |
| 2026-04-26 08:18 | 38.88812 | 1.44009 | 4067 ft | 191 kts | 75° |
| 2026-04-26 08:18 | 38.89173 | 1.45724 | 4981 ft | 205 kts | 76° |
| 2026-04-26 08:18 | 38.89541 | 1.47540 | 6065 ft | 214 kts | 76° |
| 2026-04-26 08:18 | 38.90241 | 1.49287 | 6989 ft | 234 kts | 46° |
| 2026-04-26 08:19 | 38.91710 | 1.50376 | 7828 ft | 259 kts | 18° |
| 2026-04-26 08:19 | 38.93573 | 1.50446 | 8681 ft | 283 kts | 350° |
| 2026-04-26 08:19 | 38.95524 | 1.49914 | 9813 ft | 287 kts | 354° |
| 2026-04-26 08:19 | 38.97503 | 1.49589 | 10828 ft | 297 kts | 355° |
| 2026-04-26 08:20 | 38.99612 | 1.49239 | 11627 ft | 313 kts | 354° |
| 2026-04-26 08:20 | 39.01813 | 1.48864 | 12538 ft | 324 kts | 354° |
| 2026-04-26 08:20 | 39.04027 | 1.48470 | 13530 ft | 314 kts | 353° |
| 2026-04-26 08:20 | 39.06240 | 1.48067 | 14128 ft | 326 kts | 354° |
| 2026-04-26 08:21 | 39.08518 | 1.47655 | 14983 ft | 336 kts | 354° |
| 2026-04-26 08:21 | 39.10854 | 1.47230 | 15924 ft | 341 kts | 353° |
| 2026-04-26 08:21 | 39.13228 | 1.46793 | 16862 ft | 347 kts | 354° |
| 2026-04-26 08:21 | 39.15638 | 1.46350 | 17768 ft | 353 kts | 354° |
| 2026-04-26 08:22 | 39.18093 | 1.45898 | 18635 ft | 359 kts | 354° |
| 2026-04-26 08:22 | 39.20588 | 1.45438 | 19420 ft | 364 kts | 353° |
| 2026-04-26 08:22 | 39.23109 | 1.44972 | 20224 ft | 368 kts | 353° |
| 2026-04-26 08:22 | 39.25660 | 1.44500 | 21001 ft | 372 kts | 353° |
| 2026-04-26 08:23 | 39.28239 | 1.44022 | 21772 ft | 377 kts | 353° |
| 2026-04-26 08:23 | 39.30849 | 1.43538 | 22536 ft | 381 kts | 353° |
| 2026-04-26 08:23 | 39.33489 | 1.43048 | 23282 ft | 385 kts | 353° |
| 2026-04-26 08:23 | 39.36151 | 1.42554 | 23967 ft | 389 kts | 353° |
| 2026-04-26 08:24 | 39.38835 | 1.42055 | 24610 ft | 392 kts | 353° |
| 2026-04-26 08:24 | 39.41546 | 1.41550 | 25202 ft | 395 kts | 353° |
| 2026-04-26 08:24 | 39.44286 | 1.41039 | 25812 ft | 399 kts | 353° |
| 2026-04-26 08:24 | 39.47045 | 1.40524 | 26404 ft | 402 kts | 353° |
| 2026-04-26 08:25 | 39.49822 | 1.40004 | 26983 ft | 406 kts | 353° |
| 2026-04-26 08:25 | 39.52634 | 1.39478 | 27553 ft | 409 kts | 353° |
| 2026-04-26 08:25 | 39.55462 | 1.38948 | 28113 ft | 413 kts | 353° |
| 2026-04-26 08:25 | 39.58319 | 1.38413 | 28665 ft | 416 kts | 353° |
| 2026-04-26 08:26 | 39.61202 | 1.37959 | 29218 ft | 419 kts | 356° |
| 2026-04-26 08:26 | 39.64121 | 1.37594 | 29734 ft | 423 kts | 356° |
| 2026-04-26 08:26 | 39.67055 | 1.37211 | 30264 ft | 426 kts | 356° |
| 2026-04-26 08:26 | 39.70013 | 1.36818 | 30705 ft | 429 kts | 355° |
| 2026-04-26 08:27 | 39.72989 | 1.36421 | 31180 ft | 431 kts | 355° |
| 2026-04-26 08:27 | 39.75962 | 1.36024 | 31775 ft | 429 kts | 355° |
| 2026-04-26 08:27 | 39.78944 | 1.35624 | 32123 ft | 431 kts | 355° |
| 2026-04-26 08:27 | 39.81911 | 1.35227 | 32171 ft | 427 kts | 355° |
| 2026-04-26 08:28 | 39.87801 | 1.34436 | 32159 ft | 425 kts | 355° |
| 2026-04-26 08:28 | 39.93641 | 1.33651 | 32159 ft | 425 kts | 355° |
| 2026-04-26 08:29 | 39.99475 | 1.32482 | 32147 ft | 427 kts | 341° |
| 2026-04-26 08:29 | 40.04770 | 1.28918 | 32181 ft | 428 kts | 333° |
| 2026-04-26 08:30 | 40.10043 | 1.25308 | 32177 ft | 428 kts | 333° |
| 2026-04-26 08:30 | 40.15318 | 1.21695 | 32165 ft | 428 kts | 333° |
| 2026-04-26 08:31 | 40.20590 | 1.18078 | 32159 ft | 428 kts | 333° |
| 2026-04-26 08:31 | 40.25863 | 1.14454 | 32168 ft | 427 kts | 333° |
| 2026-04-26 08:32 | 40.31097 | 1.10851 | 32164 ft | 424 kts | 333° |
| 2026-04-26 08:32 | 40.36311 | 1.07255 | 32165 ft | 424 kts | 333° |
| 2026-04-26 08:33 | 40.41527 | 1.03651 | 32167 ft | 424 kts | 333° |
| 2026-04-26 08:33 | 40.46743 | 1.00041 | 32164 ft | 424 kts | 333° |
| 2026-04-26 08:34 | 40.51953 | 0.96429 | 32169 ft | 423 kts | 333° |
| 2026-04-26 08:34 | 40.57152 | 0.92818 | 32159 ft | 423 kts | 333° |
| 2026-04-26 08:35 | 40.62355 | 0.89198 | 32159 ft | 423 kts | 333° |
| 2026-04-26 08:35 | 40.67558 | 0.85571 | 32166 ft | 423 kts | 333° |
| 2026-04-26 08:36 | 40.72759 | 0.81939 | 32163 ft | 423 kts | 333° |
| 2026-04-26 08:36 | 40.77955 | 0.78305 | 32169 ft | 423 kts | 333° |
| 2026-04-26 08:37 | 40.83116 | 0.74688 | 32162 ft | 423 kts | 333° |
| 2026-04-26 08:37 | 40.88310 | 0.71042 | 32166 ft | 422 kts | 333° |
| 2026-04-26 08:38 | 40.93495 | 0.67395 | 32171 ft | 421 kts | 332° |
| 2026-04-26 08:38 | 40.98653 | 0.63761 | 32167 ft | 420 kts | 332° |
| 2026-04-26 08:39 | 41.03814 | 0.60119 | 32162 ft | 420 kts | 332° |
| 2026-04-26 08:39 | 41.08969 | 0.56475 | 32163 ft | 420 kts | 332° |
| 2026-04-26 08:40 | 41.14125 | 0.52822 | 32169 ft | 420 kts | 332° |
| 2026-04-26 08:40 | 41.19266 | 0.49174 | 32166 ft | 419 kts | 332° |
| 2026-04-26 08:41 | 41.24405 | 0.45521 | 32158 ft | 419 kts | 332° |
| 2026-04-26 08:41 | 41.29536 | 0.41867 | 32167 ft | 419 kts | 332° |
| 2026-04-26 08:42 | 41.34674 | 0.38201 | 32167 ft | 419 kts | 332° |
| 2026-04-26 08:42 | 41.39793 | 0.34542 | 32167 ft | 417 kts | 331° |
| 2026-04-26 08:43 | 41.44904 | 0.30883 | 32160 ft | 417 kts | 331° |
| 2026-04-26 08:43 | 41.50006 | 0.27224 | 32163 ft | 417 kts | 331° |
| 2026-04-26 08:44 | 41.55109 | 0.23556 | 32163 ft | 417 kts | 331° |
| 2026-04-26 08:44 | 41.60211 | 0.19884 | 32162 ft | 416 kts | 331° |
| 2026-04-26 08:45 | 41.65271 | 0.16235 | 32172 ft | 416 kts | 331° |
| 2026-04-26 08:45 | 41.70363 | 0.12555 | 32162 ft | 416 kts | 331° |
| 2026-04-26 08:46 | 41.75454 | 0.08870 | 32159 ft | 416 kts | 331° |
| 2026-04-26 08:46 | 41.80539 | 0.05183 | 32169 ft | 415 kts | 330° |
| 2026-04-26 08:47 | 41.84796 | 0.02091 | 32148 ft | 415 kts | 330° |
| 2026-04-26 08:47 | 41.89837 | -0.01576 | 32156 ft | 415 kts | 330° |
| 2026-04-26 08:48 | 41.94909 | -0.05273 | 32158 ft | 415 kts | 330° |
| 2026-04-26 08:48 | 41.99979 | -0.08975 | 32175 ft | 414 kts | 330° |
| 2026-04-26 08:49 | 42.05041 | -0.12678 | 32186 ft | 414 kts | 330° |
| 2026-04-26 08:49 | 42.10103 | -0.16388 | 32176 ft | 414 kts | 330° |
| 2026-04-26 08:50 | 42.15158 | -0.20100 | 32174 ft | 414 kts | 330° |
| 2026-04-26 08:50 | 42.20047 | -0.24150 | 32143 ft | 410 kts | 314° |
| 2026-04-26 08:51 | 42.23125 | -0.30529 | 32156 ft | 408 kts | 297° |
| 2026-04-26 08:51 | 42.24445 | -0.33918 | 32154 ft | 408 kts | 296° |
| 2026-04-26 08:52 | 42.27009 | -0.40748 | 32153 ft | 408 kts | 296° |
| 2026-04-26 08:52 | 42.29531 | -0.47614 | 32151 ft | 408 kts | 295° |
| 2026-04-26 08:53 | 42.32041 | -0.54489 | 32154 ft | 408 kts | 295° |
| 2026-04-26 08:53 | 42.34545 | -0.61365 | 32154 ft | 408 kts | 295° |
| 2026-04-26 08:54 | 42.37047 | -0.68250 | 32157 ft | 408 kts | 295° |
| 2026-04-26 08:54 | 42.39541 | -0.75133 | 32157 ft | 408 kts | 295° |
| 2026-04-26 08:55 | 42.42040 | -0.82042 | 32150 ft | 409 kts | 295° |
| 2026-04-26 08:55 | 42.44536 | -0.88971 | 32153 ft | 410 kts | 295° |
| 2026-04-26 08:56 | 42.47029 | -0.95904 | 32149 ft | 410 kts | 295° |
| 2026-04-26 08:56 | 42.49518 | -1.02844 | 32154 ft | 410 kts | 295° |
| 2026-04-26 08:57 | 42.51989 | -1.09747 | 32159 ft | 410 kts | 295° |
| 2026-04-26 08:57 | 42.54473 | -1.16702 | 32151 ft | 411 kts | 295° |
| 2026-04-26 08:58 | 42.56961 | -1.23686 | 32160 ft | 412 kts | 295° |
| 2026-04-26 08:58 | 42.59452 | -1.30697 | 32169 ft | 412 kts | 295° |
| 2026-04-26 08:59 | 42.61940 | -1.37715 | 32185 ft | 414 kts | 296° |
| 2026-04-26 08:59 | 42.63175 | -1.41203 | 31778 ft | 410 kts | 296° |
| 2026-04-26 08:59 | 42.64427 | -1.44745 | 31092 ft | 422 kts | 296° |
| 2026-04-26 08:59 | 42.65714 | -1.48389 | 30572 ft | 435 kts | 296° |
| 2026-04-26 09:00 | 42.67039 | -1.52144 | 30014 ft | 445 kts | 296° |
| 2026-04-26 09:00 | 42.68384 | -1.55964 | 29413 ft | 450 kts | 296° |
| 2026-04-26 09:00 | 42.69737 | -1.59818 | 28823 ft | 453 kts | 296° |
| 2026-04-26 09:00 | 42.71097 | -1.63694 | 28247 ft | 456 kts | 296° |
| 2026-04-26 09:01 | 42.72465 | -1.67597 | 27677 ft | 458 kts | 296° |
| 2026-04-26 09:01 | 42.73971 | -1.71418 | 27126 ft | 460 kts | 303° |
| 2026-04-26 09:01 | 42.75691 | -1.75090 | 26570 ft | 462 kts | 303° |
| 2026-04-26 09:01 | 42.77425 | -1.78791 | 26028 ft | 464 kts | 303° |
| 2026-04-26 09:02 | 42.79166 | -1.82501 | 25493 ft | 467 kts | 303° |
| 2026-04-26 09:02 | 42.80914 | -1.86226 | 24966 ft | 466 kts | 303° |
| 2026-04-26 09:02 | 42.82653 | -1.89935 | 24446 ft | 464 kts | 303° |
| 2026-04-26 09:02 | 42.84386 | -1.93635 | 23941 ft | 462 kts | 303° |
| 2026-04-26 09:03 | 42.86114 | -1.97324 | 23394 ft | 460 kts | 303° |
| 2026-04-26 09:03 | 42.87825 | -2.00983 | 22818 ft | 456 kts | 303° |
| 2026-04-26 09:03 | 42.89519 | -2.04608 | 22238 ft | 451 kts | 303° |
| 2026-04-26 09:03 | 42.91197 | -2.08207 | 21619 ft | 447 kts | 303° |
| 2026-04-26 09:04 | 42.92856 | -2.11767 | 20985 ft | 443 kts | 303° |
| 2026-04-26 09:04 | 42.94500 | -2.15298 | 20334 ft | 439 kts | 303° |
| 2026-04-26 09:04 | 42.96128 | -2.18801 | 19645 ft | 435 kts | 302° |
| 2026-04-26 09:04 | 42.97739 | -2.22267 | 18939 ft | 430 kts | 303° |
| 2026-04-26 09:05 | 42.99347 | -2.25685 | 18089 ft | 426 kts | 303° |
| 2026-04-26 09:05 | 43.00949 | -2.29089 | 17106 ft | 426 kts | 303° |
| 2026-04-26 09:05 | 43.02540 | -2.32483 | 16319 ft | 421 kts | 303° |
| 2026-04-26 09:05 | 43.04037 | -2.35897 | 15596 ft | 416 kts | 296° |
| 2026-04-26 09:06 | 43.05068 | -2.39561 | 14913 ft | 411 kts | 289° |
| 2026-04-26 09:06 | 43.06012 | -2.43212 | 14271 ft | 405 kts | 290° |
| 2026-04-26 09:06 | 43.06961 | -2.46819 | 13562 ft | 401 kts | 290° |
| 2026-04-26 09:06 | 43.07895 | -2.50334 | 12912 ft | 395 kts | 290° |
| 2026-04-26 09:07 | 43.08828 | -2.53841 | 12302 ft | 389 kts | 290° |
| 2026-04-26 09:07 | 43.09746 | -2.57287 | 11780 ft | 382 kts | 290° |
| 2026-04-26 09:07 | 43.10642 | -2.60657 | 11348 ft | 373 kts | 290° |
| 2026-04-26 09:07 | 43.11517 | -2.63949 | 10983 ft | 363 kts | 290° |
| 2026-04-26 09:08 | 43.12368 | -2.67158 | 10652 ft | 354 kts | 290° |
| 2026-04-26 09:08 | 43.13196 | -2.70283 | 10369 ft | 344 kts | 290° |
| 2026-04-26 09:08 | 43.13998 | -2.73315 | 10110 ft | 334 kts | 290° |
| 2026-04-26 09:08 | 43.14779 | -2.76267 | 9860 ft | 324 kts | 290° |
| 2026-04-26 09:09 | 43.15533 | -2.79122 | 9636 ft | 314 kts | 290° |
| 2026-04-26 09:09 | 43.16264 | -2.81899 | 9406 ft | 306 kts | 290° |
| 2026-04-26 09:09 | 43.16987 | -2.84641 | 8870 ft | 307 kts | 290° |
| 2026-04-26 09:09 | 43.17709 | -2.87383 | 8446 ft | 306 kts | 290° |
| 2026-04-26 09:10 | 43.18429 | -2.90120 | 8030 ft | 304 kts | 290° |
| 2026-04-26 09:10 | 43.19145 | -2.92843 | 7650 ft | 302 kts | 290° |
| 2026-04-26 09:10 | 43.19849 | -2.95531 | 7361 ft | 297 kts | 290° |
| 2026-04-26 09:10 | 43.20536 | -2.98152 | 7199 ft | 287 kts | 290° |
| 2026-04-26 09:11 | 43.21198 | -3.00684 | 7089 ft | 277 kts | 290° |
| 2026-04-26 09:11 | 43.21838 | -3.03126 | 6981 ft | 267 kts | 291° |
| 2026-04-26 09:11 | 43.22460 | -3.05508 | 6694 ft | 265 kts | 291° |
| 2026-04-26 09:11 | 43.23082 | -3.07890 | 6328 ft | 265 kts | 291° |
| 2026-04-26 09:12 | 43.23701 | -3.10261 | 6003 ft | 264 kts | 290° |
| 2026-04-26 09:12 | 43.24316 | -3.12623 | 5736 ft | 262 kts | 290° |
| 2026-04-26 09:12 | 43.24928 | -3.14974 | 5423 ft | 262 kts | 291° |
| 2026-04-26 09:12 | 43.25537 | -3.17318 | 5175 ft | 259 kts | 290° |
| 2026-04-26 09:13 | 43.26130 | -3.19605 | 5102 ft | 249 kts | 291° |
| 2026-04-26 09:13 | 43.26692 | -3.21777 | 5098 ft | 234 kts | 291° |
| 2026-04-26 09:13 | 43.27220 | -3.23815 | 5077 ft | 220 kts | 291° |
| 2026-04-26 09:13 | 43.27717 | -3.25727 | 5083 ft | 205 kts | 291° |
| 2026-04-26 09:14 | 43.28231 | -3.27706 | 5162 ft | 250 kts | 291° |
| 2026-04-26 09:14 | 43.28848 | -3.30080 | 5057 ft | 272 kts | 291° |
| 2026-04-26 09:14 | 43.29487 | -3.32507 | 5042 ft | 265 kts | 292° |
| 2026-04-26 09:14 | 43.30125 | -3.34852 | 5150 ft | 259 kts | 291° |
| 2026-04-26 09:15 | 43.30732 | -3.37099 | 5091 ft | 249 kts | 292° |
| 2026-04-26 09:15 | 43.31319 | -3.39272 | 5073 ft | 236 kts | 292° |
| 2026-04-26 09:15 | 43.31871 | -3.41314 | 5093 ft | 222 kts | 292° |
| 2026-04-26 09:15 | 43.32387 | -3.43256 | 5061 ft | 211 kts | 291° |
| 2026-04-26 09:16 | 43.32869 | -3.45116 | 4966 ft | 204 kts | 291° |
| 2026-04-26 09:16 | 43.33357 | -3.46971 | 4850 ft | 210 kts | 291° |
| 2026-04-26 09:16 | 43.33858 | -3.48863 | 4712 ft | 212 kts | 291° |
| 2026-04-26 09:16 | 43.34367 | -3.50776 | 4447 ft | 213 kts | 291° |
| 2026-04-26 09:17 | 43.34875 | -3.52688 | 4190 ft | 214 kts | 291° |
| 2026-04-26 09:17 | 43.35389 | -3.54615 | 3919 ft | 215 kts | 290° |
| 2026-04-26 09:17 | 43.35905 | -3.56547 | 3645 ft | 216 kts | 290° |
| 2026-04-26 09:17 | 43.36424 | -3.58492 | 3379 ft | 217 kts | 290° |
| 2026-04-26 09:18 | 43.36946 | -3.60445 | 3103 ft | 218 kts | 290° |
| 2026-04-26 09:18 | 43.37468 | -3.62398 | 2822 ft | 219 kts | 290° |
| 2026-04-26 09:18 | 43.37996 | -3.64370 | 2529 ft | 220 kts | 290° |
| 2026-04-26 09:18 | 43.38518 | -3.66325 | 2230 ft | 215 kts | 290° |
| 2026-04-26 09:19 | 43.39030 | -3.68241 | 1921 ft | 210 kts | 290° |
| 2026-04-26 09:19 | 43.39523 | -3.70087 | 1664 ft | 200 kts | 290° |
| 2026-04-26 09:19 | 43.39976 | -3.71783 | 1426 ft | 177 kts | 290° |
| 2026-04-26 09:19 | 43.40370 | -3.73259 | 1191 ft | 153 kts | 291° |
| 2026-04-26 09:20 | 43.40715 | -3.74550 | 985 ft | 136 kts | 291° |
| 2026-04-26 09:20 | 43.41032 | -3.75734 | 808 ft | 130 kts | 291° |
| 2026-04-26 09:20 | 43.41344 | -3.76902 | 633 ft | 130 kts | 291° |
| 2026-04-26 09:20 | 43.41654 | -3.78067 | 464 ft | 130 kts | 290° |
| 2026-04-26 09:21 | 43.41965 | -3.79237 | 285 ft | 130 kts | 289° |
| 2026-04-26 09:21 | 43.42281 | -3.80412 | 120 ft | 131 kts | 289° |
| 2026-04-26 09:21 | 43.42596 | -3.81584 | 32 ft | 129 kts | 290° |
| 2026-04-26 09:21 | 43.42875 | -3.82667 | 23 ft | 89 kts | 289° |
| 2026-04-26 09:22 | 43.42910 | -3.83017 | 24 ft | 21 kts | 234° |
| 2026-04-26 09:22 | 43.42833 | -3.83031 | 21 ft | 14 kts | 143° |
| 2026-04-26 09:22 | 43.42778 | -3.82905 | 21 ft | 17 kts | 112° |
| 2026-04-26 09:22 | 43.42733 | -3.82733 | 25 ft | 21 kts | 111° |
| 2026-04-26 09:23 | 43.42679 | -3.82526 | 22 ft | 25 kts | 109° |
| 2026-04-26 09:23 | 43.42609 | -3.82318 | 21 ft | 18 kts | 144° |
| 2026-04-26 09:23 | 43.42505 | -3.82328 | 21 ft | 17 kts | 185° |
| 2026-04-26 09:23 | 43.42405 | -3.82342 | 22 ft | 8 kts | 225° |
| 2026-04-26 09:24 | 43.42392 | -3.82363 | 21 ft | 4 kts | 230° |
| 2026-04-26 09:24 | 43.42385 | -3.82374 | 21 ft | 0 kts | 230° |